createdAt,value
2019-02-18T00:01:50.194Z,5.63
2019-02-18T00:04:19.735Z,5.33
2019-02-18T00:06:49.016Z,6.47
2019-02-18T00:09:19.998Z,5.97
2019-02-18T00:11:49.383Z,6.10
2019-02-18T00:14:20.465Z,6.27
2019-02-18T00:16:53.077Z,6.87
2019-02-18T00:19:22.704Z,5.93
2019-02-18T00:21:53.182Z,5.27
2019-02-18T00:24:22.645Z,6.17
2019-02-18T00:26:51.983Z,6.00
2019-02-18T00:29:22.983Z,5.00
2019-02-18T00:31:55.885Z,6.23
2019-02-18T00:34:25.489Z,5.63
2019-02-18T00:36:55.113Z,6.53
2019-02-18T00:39:24.718Z,5.47
2019-02-18T00:41:54.344Z,6.13
2019-02-18T00:44:24.003Z,5.90
2019-02-18T00:46:53.289Z,5.03
2019-02-18T00:49:22.716Z,5.50
2019-02-18T00:51:52.054Z,5.43
2019-02-18T00:54:21.386Z,5.13
2019-02-18T00:56:50.647Z,5.17
2019-02-18T00:59:19.918Z,5.20
2019-02-18T01:01:49.568Z,6.97
2019-02-18T01:04:19.113Z,5.43
2019-02-18T01:06:48.392Z,6.67
2019-02-18T01:09:17.711Z,5.83
2019-02-18T01:11:47.325Z,5.10
2019-02-18T01:14:18.155Z,5.77
2019-02-18T01:16:47.747Z,6.67
2019-02-18T01:19:17.391Z,7.93
2019-02-18T01:21:46.730Z,5.40
2019-02-18T01:24:16.135Z,5.23
2019-02-18T01:26:45.981Z,5.00
2019-02-18T01:29:22.757Z,5.80
2019-02-18T01:31:51.730Z,5.77
2019-02-18T01:34:20.998Z,5.30
2019-02-18T01:36:50.364Z,5.27
2019-02-18T01:39:19.711Z,4.97
2019-02-18T01:41:49.001Z,5.43
2019-02-18T01:44:18.667Z,5.67
2019-02-18T01:46:48.014Z,5.37
2019-02-18T01:49:17.640Z,5.30
2019-02-18T01:51:47.166Z,6.03
2019-02-18T01:54:16.470Z,6.07
2019-02-18T01:56:46.005Z,5.17
2019-02-18T01:59:17.746Z,5.13
2019-02-18T02:01:47.372Z,4.87
2019-02-18T02:04:16.734Z,5.17
2019-02-18T02:06:49.088Z,7.67
2019-02-18T02:09:23.250Z,4.83
2019-02-18T02:11:52.654Z,6.00
2019-02-18T02:14:22.474Z,5.17
2019-02-18T02:16:51.819Z,5.43
2019-02-18T02:19:22.286Z,6.43
2019-02-18T02:21:52.849Z,7.07
2019-02-18T02:24:22.698Z,6.93
2019-02-18T02:26:52.806Z,5.10
2019-02-18T02:29:23.620Z,5.23
2019-02-18T02:31:52.975Z,7.23
2019-02-18T02:34:22.574Z,5.23
2019-02-18T02:36:51.918Z,5.37
2019-02-18T02:39:21.239Z,5.30
2019-02-18T02:41:50.529Z,5.90
2019-02-18T02:44:20.216Z,4.87
2019-02-18T02:46:49.529Z,4.90
2019-02-18T02:49:19.188Z,5.23
2019-02-18T02:51:48.483Z,5.47
2019-02-18T02:54:18.073Z,5.10
2019-02-18T02:56:47.742Z,4.60
2019-02-18T02:59:17.276Z,4.83
2019-02-18T03:01:46.891Z,4.83
2019-02-18T03:04:16.270Z,5.50
2019-02-18T03:06:45.861Z,5.53
2019-02-18T03:09:15.468Z,4.90
2019-02-18T03:11:47.693Z,7.20
2019-02-18T03:14:17.056Z,6.10
2019-02-18T03:16:46.387Z,5.40
2019-02-18T03:19:22.988Z,6.33
2019-02-18T03:21:52.337Z,7.03
2019-02-18T03:24:21.734Z,5.10
2019-02-18T03:26:54.471Z,4.73
2019-02-18T03:30:13.008Z,4.43
2019-02-18T03:32:50.127Z,5.10
2019-02-18T03:35:19.397Z,4.70
2019-02-18T03:37:51.329Z,5.80
2019-02-18T03:40:21.007Z,5.73
2019-02-18T03:42:50.375Z,5.17
2019-02-18T03:45:20.515Z,5.90
2019-02-18T03:47:50.014Z,6.00
2019-02-18T03:50:19.459Z,4.70
2019-02-18T03:52:48.730Z,5.17
2019-02-18T03:55:18.139Z,4.73
2019-02-18T03:57:47.581Z,4.77
2019-02-18T04:00:16.857Z,4.87
2019-02-18T04:02:46.243Z,5.67
2019-02-18T04:05:15.941Z,4.30
2019-02-18T04:07:45.584Z,4.93
2019-02-18T04:10:15.386Z,5.20
2019-02-18T04:12:44.684Z,6.27
2019-02-18T04:15:14.479Z,4.93
2019-02-18T04:17:43.784Z,5.33
2019-02-18T04:20:13.145Z,4.40
2019-02-18T04:22:42.510Z,4.80
2019-02-18T04:25:12.173Z,5.47
2019-02-18T04:27:41.796Z,4.73
2019-02-18T04:30:13.592Z,5.23
2019-02-18T04:32:42.982Z,5.00
2019-02-18T04:35:12.322Z,6.87
2019-02-18T04:37:41.614Z,5.57
2019-02-18T04:40:11.014Z,5.30
2019-02-18T04:42:40.360Z,6.40
2019-02-18T04:45:10.059Z,6.27
2019-02-18T04:47:39.826Z,5.30
2019-02-18T04:50:09.379Z,4.70
2019-02-18T04:52:38.751Z,4.83
2019-02-18T04:55:08.850Z,5.10
2019-02-18T04:57:38.770Z,6.10
2019-02-18T05:00:09.263Z,6.63
2019-02-18T05:02:38.558Z,6.20
2019-02-18T05:05:08.251Z,6.23
2019-02-18T05:07:37.612Z,5.00
2019-02-18T05:10:08.113Z,6.20
2019-02-18T05:12:37.960Z,6.87
2019-02-18T05:15:07.845Z,5.93
2019-02-18T05:17:37.805Z,6.80
2019-02-18T05:20:17.524Z,5.60
2019-02-18T05:22:48.142Z,5.47
2019-02-18T05:25:17.480Z,6.50
2019-02-18T05:27:49.111Z,6.43
2019-02-18T05:30:19.148Z,7.13
2019-02-18T05:32:48.855Z,5.70
2019-02-18T05:35:18.250Z,5.00
2019-02-18T05:37:47.644Z,8.67
2019-02-18T05:40:17.016Z,6.23
2019-02-18T05:42:46.376Z,5.40
2019-02-18T05:45:15.924Z,5.43
2019-02-18T05:47:45.574Z,5.67
2019-02-18T05:50:14.931Z,5.87
2019-02-18T05:52:44.330Z,6.17
2019-02-18T05:55:13.974Z,6.17
2019-02-18T05:57:43.241Z,5.00
2019-02-18T06:00:13.975Z,5.60
2019-02-18T06:02:43.599Z,8.90
2019-02-18T06:05:13.272Z,6.13
2019-02-18T06:07:42.552Z,8.23
2019-02-18T06:10:13.863Z,7.93
2019-02-18T06:12:43.624Z,5.83
2019-02-18T06:15:13.111Z,5.77
2019-02-18T06:17:42.465Z,6.93
2019-02-18T06:20:12.118Z,5.33
2019-02-18T06:22:41.516Z,6.67
2019-02-18T06:25:10.880Z,6.07
2019-02-18T06:27:40.245Z,6.77
2019-02-18T06:30:10.237Z,7.30
2019-02-18T06:32:39.874Z,6.60
2019-02-18T06:35:09.491Z,8.57
2019-02-18T06:37:38.865Z,7.23
2019-02-18T06:40:08.648Z,6.67
2019-02-18T06:42:39.565Z,7.40
2019-02-18T06:45:34.413Z,5.47
2019-02-18T06:48:16.645Z,8.80
2019-02-18T06:50:46.171Z,8.27
2019-02-18T06:53:15.457Z,6.60
2019-02-18T06:55:48.364Z,6.33
2019-02-18T06:58:24.624Z,7.17
2019-02-18T07:00:58.933Z,7.37
2019-02-18T07:03:50.246Z,8.07
2019-02-18T07:06:34.486Z,6.87
2019-02-18T07:09:18.695Z,6.00
2019-02-18T07:11:56.167Z,8.27
2019-02-18T07:14:25.609Z,7.60
2019-02-18T07:17:22.218Z,7.10
2019-02-18T07:19:51.609Z,8.13
2019-02-18T07:22:20.886Z,7.80
2019-02-18T07:24:50.985Z,6.90
2019-02-18T07:27:20.378Z,8.43
2019-02-18T07:29:50.074Z,7.07
2019-02-18T07:32:19.722Z,9.37
2019-02-18T07:34:49.277Z,9.43
2019-02-18T07:37:19.904Z,8.30
2019-02-18T07:39:49.374Z,8.13
2019-02-18T07:42:18.640Z,8.53
2019-02-18T07:44:47.920Z,8.60
2019-02-18T07:47:17.189Z,9.80
2019-02-18T07:49:46.504Z,7.87
2019-02-18T07:52:16.404Z,8.83
2019-02-18T07:54:45.710Z,11.63
2019-02-18T07:57:14.984Z,8.33
2019-02-18T07:59:44.337Z,9.57
2019-02-18T08:02:13.986Z,8.63
2019-02-18T08:04:44.090Z,10.20
2019-02-18T08:07:13.467Z,9.77
2019-02-18T08:09:43.901Z,10.73
2019-02-18T08:12:13.607Z,9.13
2019-02-18T08:14:42.810Z,11.50
2019-02-18T08:17:12.170Z,9.20
2019-02-18T08:19:41.560Z,8.60
2019-02-18T08:22:10.870Z,9.70
2019-02-18T08:24:40.236Z,9.13
2019-02-18T08:27:09.640Z,8.00
2019-02-18T08:29:39.152Z,9.23
2019-02-18T08:32:10.711Z,7.67
2019-02-18T08:34:39.502Z,8.67
2019-02-18T08:37:08.946Z,9.63
2019-02-18T08:39:38.382Z,8.33
2019-02-18T08:42:07.943Z,10.80
2019-02-18T08:44:37.641Z,9.23
2019-02-18T08:47:07.045Z,10.73
2019-02-18T08:49:36.901Z,9.73
2019-02-18T08:52:06.281Z,10.10
2019-02-18T08:54:35.634Z,7.80
2019-02-18T08:57:05.337Z,10.50
2019-02-18T08:59:35.304Z,10.00
2019-02-18T09:02:05.043Z,11.67
2019-02-18T09:04:34.472Z,11.77
2019-02-18T09:07:03.816Z,8.60
2019-02-18T09:09:33.104Z,9.73
2019-02-18T09:12:02.675Z,8.40
2019-02-18T09:14:32.184Z,9.97
2019-02-18T09:17:02.073Z,9.97
2019-02-18T09:19:31.426Z,8.23
2019-02-18T09:22:18.779Z,8.17
2019-02-18T09:24:53.962Z,9.63
2019-02-18T09:27:23.728Z,8.73
2019-02-18T09:29:53.095Z,10.43
2019-02-18T09:32:22.475Z,9.40
2019-02-18T09:34:53.268Z,10.70
2019-02-18T09:37:23.013Z,9.50
2019-02-18T09:39:52.670Z,8.87
2019-02-18T09:42:22.067Z,10.27
2019-02-18T09:44:51.325Z,9.40
2019-02-18T09:47:20.871Z,10.20
2019-02-18T09:49:50.211Z,10.20
2019-02-18T09:52:19.544Z,8.67
2019-02-18T09:54:49.007Z,9.83
2019-02-18T09:57:18.657Z,9.13
2019-02-18T09:59:47.941Z,9.23
2019-02-18T10:02:17.571Z,10.17
2019-02-18T10:04:46.962Z,10.67
2019-02-18T10:07:19.525Z,9.33
2019-02-18T10:09:48.841Z,11.27
2019-02-18T10:12:18.942Z,10.80
2019-02-18T10:14:48.196Z,9.63
2019-02-18T10:17:17.534Z,11.07
2019-02-18T10:19:47.173Z,12.43
2019-02-18T10:22:16.775Z,13.00
2019-02-18T10:24:50.541Z,9.23
2019-02-18T10:27:17.092Z,8.40
2019-02-18T10:29:46.488Z,8.90
2019-02-18T10:32:15.776Z,8.50
2019-02-18T10:34:45.082Z,9.73
2019-02-18T10:37:14.659Z,11.33
2019-02-18T10:39:44.404Z,8.97
2019-02-18T10:42:14.084Z,9.57
2019-02-18T10:44:43.282Z,10.13
2019-02-18T10:47:12.977Z,8.07
2019-02-18T10:49:42.368Z,9.73
2019-02-18T10:52:12.069Z,9.20
2019-02-18T10:54:41.800Z,9.53
2019-02-18T10:57:11.334Z,11.80
2019-02-18T10:59:40.756Z,9.43
2019-02-18T11:02:10.848Z,9.13
2019-02-18T11:04:40.146Z,9.10
2019-02-18T11:07:09.856Z,9.43
2019-02-18T11:09:39.368Z,8.40
2019-02-18T11:12:08.681Z,9.33
2019-02-18T11:14:38.078Z,9.40
2019-02-18T11:17:07.405Z,7.97
2019-02-18T11:19:36.674Z,8.30
2019-02-18T11:22:06.550Z,9.17
2019-02-18T11:24:36.450Z,11.47
2019-02-18T11:27:06.110Z,8.37
2019-02-18T11:29:36.140Z,8.73
2019-02-18T11:32:05.538Z,7.57
2019-02-18T11:34:34.886Z,9.53
2019-02-18T11:37:04.240Z,10.43
2019-02-18T11:39:33.572Z,10.40
2019-02-18T11:42:02.919Z,8.37
2019-02-18T11:44:32.751Z,7.57
2019-02-18T11:47:02.253Z,7.77
2019-02-18T11:49:32.181Z,8.23
2019-02-18T11:52:03.935Z,11.40
2019-02-18T11:54:33.360Z,8.83
2019-02-18T11:57:03.120Z,10.00
2019-02-18T11:59:32.543Z,7.70
2019-02-18T12:02:02.639Z,8.67
2019-02-18T12:04:32.005Z,9.67
2019-02-18T12:07:01.353Z,8.50
2019-02-18T12:09:32.754Z,9.40
2019-02-18T12:12:02.178Z,8.27
2019-02-18T12:14:31.846Z,8.00
2019-02-18T12:17:01.632Z,7.90
2019-02-18T12:19:31.775Z,7.77
2019-02-18T12:22:01.898Z,8.27
2019-02-18T12:24:34.069Z,10.33
2019-02-18T12:27:03.407Z,9.20
2019-02-18T12:29:32.973Z,7.40
2019-02-18T12:32:05.209Z,8.07
2019-02-18T12:34:35.195Z,7.53
2019-02-18T12:37:04.643Z,9.70
2019-02-18T12:39:34.397Z,8.60
2019-02-18T12:42:03.720Z,8.03
2019-02-18T12:44:33.008Z,7.90
2019-02-18T12:47:03.879Z,9.70
2019-02-18T12:49:36.677Z,7.90
2019-02-18T12:52:06.413Z,8.60
2019-02-18T12:54:37.933Z,7.90
2019-02-18T12:57:07.479Z,8.97
2019-02-18T12:59:36.931Z,9.37
2019-02-18T13:02:06.374Z,7.83
2019-02-18T13:04:36.153Z,8.47
2019-02-18T13:07:05.544Z,10.60
2019-02-18T13:09:35.029Z,9.73
2019-02-18T13:12:06.632Z,8.03
2019-02-18T13:14:36.171Z,9.50
2019-02-18T13:17:05.847Z,8.70
2019-02-18T13:19:35.129Z,7.93
2019-02-18T13:22:04.602Z,9.10
2019-02-18T13:24:34.134Z,8.97
2019-02-18T13:27:03.389Z,8.90
2019-02-18T13:29:34.980Z,9.80
2019-02-18T13:32:04.628Z,10.07
2019-02-18T13:34:33.979Z,10.43
2019-02-18T13:37:04.581Z,9.03
2019-02-18T13:39:33.975Z,8.50
2019-02-18T13:42:07.701Z,8.40
2019-02-18T13:44:34.504Z,9.70
2019-02-18T13:47:03.907Z,14.63
2019-02-18T13:49:33.291Z,8.73
2019-02-18T13:52:02.682Z,9.20
2019-02-18T13:54:32.093Z,8.33
2019-02-18T13:57:04.543Z,8.77
2019-02-18T13:59:33.019Z,9.37
2019-02-18T14:02:02.461Z,8.30
2019-02-18T14:04:32.143Z,8.93
2019-02-18T14:07:01.850Z,9.83
2019-02-18T14:09:31.726Z,8.53
2019-02-18T14:12:01.009Z,8.93
2019-02-18T14:14:30.415Z,9.50
2019-02-18T14:17:02.856Z,9.60
2019-02-18T14:19:32.745Z,12.07
2019-02-18T14:22:02.099Z,8.47
2019-02-18T14:24:31.908Z,11.13
2019-02-18T14:27:03.037Z,10.93
2019-02-18T14:29:33.190Z,10.43
2019-02-18T14:32:02.931Z,10.87
2019-02-18T14:34:32.610Z,9.57
2019-02-18T14:37:01.972Z,15.37
2019-02-18T14:39:31.509Z,13.77
2019-02-18T14:42:01.075Z,9.30
2019-02-18T14:44:31.204Z,10.67
2019-02-18T14:47:01.500Z,11.00
2019-02-18T14:49:31.558Z,8.73
2019-02-18T14:52:00.950Z,12.77
2019-02-18T14:54:30.331Z,9.93
2019-02-18T14:57:00.312Z,9.83
2019-02-18T14:59:29.704Z,8.33
2019-02-18T15:01:59.533Z,11.40
2019-02-18T15:04:28.928Z,9.40
2019-02-18T15:06:58.218Z,9.10
2019-02-18T15:09:27.597Z,11.37
2019-02-18T15:12:01.463Z,10.83
2019-02-18T15:14:31.432Z,13.03
2019-02-18T15:17:00.779Z,9.77
2019-02-18T15:19:30.389Z,8.70
2019-02-18T15:21:59.787Z,9.27
2019-02-18T15:24:29.576Z,10.27
2019-02-18T15:26:59.244Z,12.07
2019-02-18T15:29:28.967Z,12.17
2019-02-18T15:31:58.584Z,10.27
2019-02-18T15:34:28.019Z,12.97
2019-02-18T15:37:00.535Z,10.63
2019-02-18T15:39:29.915Z,10.30
2019-02-18T15:41:59.391Z,11.30
2019-02-18T15:44:29.185Z,12.83
2019-02-18T15:46:58.689Z,9.23
2019-02-18T15:49:28.044Z,13.43
2019-02-18T15:51:57.599Z,11.47
2019-02-18T15:54:27.000Z,10.27
2019-02-18T15:56:56.653Z,11.20
2019-02-18T15:59:26.466Z,10.63
2019-02-18T16:01:56.524Z,11.50
2019-02-18T16:04:25.887Z,13.43
2019-02-18T16:06:55.550Z,9.83
2019-02-18T16:09:25.259Z,12.70
2019-02-18T16:11:55.381Z,12.77
2019-02-18T16:14:25.090Z,11.47
2019-02-18T16:16:54.513Z,12.00
2019-02-18T16:19:23.905Z,10.20
2019-02-18T16:21:54.004Z,10.87
2019-02-18T16:24:24.019Z,12.83
2019-02-18T16:26:53.445Z,11.73
2019-02-18T16:29:23.136Z,9.27
2019-02-18T16:31:52.897Z,10.20
2019-02-18T16:34:22.236Z,11.23
2019-02-18T16:36:51.561Z,9.33
2019-02-18T16:39:21.037Z,11.03
2019-02-18T16:41:50.397Z,11.53
2019-02-18T16:44:19.781Z,14.10
2019-02-18T16:46:49.069Z,15.20
2019-02-18T16:49:18.280Z,13.33
2019-02-18T16:51:47.699Z,12.53
2019-02-18T16:54:17.092Z,16.20
2019-02-18T16:56:47.299Z,14.53
2019-02-18T16:59:16.992Z,12.73
2019-02-18T17:01:46.620Z,15.07
2019-02-18T17:04:15.988Z,13.33
2019-02-18T17:06:45.374Z,12.47
2019-02-18T17:09:17.578Z,14.07
2019-02-18T17:11:47.181Z,12.90
2019-02-18T17:14:18.667Z,14.20
2019-02-18T17:16:48.956Z,16.50
2019-02-18T17:19:18.537Z,14.77
2019-02-18T17:21:48.067Z,15.27
2019-02-18T17:24:17.762Z,16.03
2019-02-18T17:26:47.198Z,20.27
2019-02-18T17:29:23.144Z,17.37
2019-02-18T17:31:52.585Z,16.73
2019-02-18T17:34:21.948Z,19.27
2019-02-18T17:36:51.276Z,16.63
2019-02-18T17:39:20.565Z,22.30
2019-02-18T17:41:50.173Z,18.33
2019-02-18T17:44:20.386Z,14.30
2019-02-18T17:46:50.270Z,14.47
2019-02-18T17:49:19.529Z,15.73
2019-02-18T17:51:49.139Z,14.60
2019-02-18T17:54:18.533Z,14.50
2019-02-18T17:56:47.895Z,17.17
2019-02-18T17:59:17.274Z,18.40
2019-02-18T18:01:55.407Z,14.13
2019-02-18T18:04:26.087Z,14.33
2019-02-18T18:06:59.108Z,14.07
2019-02-18T18:09:29.980Z,12.60
2019-02-18T18:12:02.576Z,12.83
2019-02-18T18:14:31.950Z,12.43
2019-02-18T18:17:03.061Z,14.23
2019-02-18T18:19:35.970Z,12.63
2019-02-18T18:22:06.572Z,15.03
2019-02-18T18:24:35.806Z,10.73
2019-02-18T18:27:05.794Z,12.43
2019-02-18T18:29:35.927Z,12.23
2019-02-18T18:32:05.672Z,9.70
2019-02-18T18:34:35.383Z,12.07
2019-02-18T18:37:04.740Z,11.27
2019-02-18T18:39:34.771Z,10.30
2019-02-18T18:42:04.167Z,9.80
2019-02-18T18:44:33.926Z,9.60
2019-02-18T18:47:03.588Z,9.53
2019-02-18T18:49:33.338Z,10.33
2019-02-18T18:52:02.715Z,11.23
2019-02-18T18:54:32.381Z,9.27
2019-02-18T18:57:04.217Z,14.00
2019-02-18T18:59:33.864Z,10.67
2019-02-18T19:02:04.142Z,8.63
2019-02-18T19:04:33.459Z,11.03
2019-02-18T19:07:02.889Z,8.60
2019-02-18T19:09:32.248Z,11.73
2019-02-18T19:12:01.575Z,9.27
2019-02-18T19:14:31.596Z,9.83
2019-02-18T19:17:01.751Z,8.20
2019-02-18T19:19:31.295Z,10.50
2019-02-18T19:22:00.657Z,11.63
2019-02-18T19:24:30.415Z,11.73
2019-02-18T19:26:59.769Z,11.50
2019-02-18T19:29:29.143Z,9.23
2019-02-18T19:31:58.500Z,9.80
2019-02-18T19:34:28.467Z,11.00
2019-02-18T19:36:58.075Z,12.77
2019-02-18T19:39:27.650Z,10.43
2019-02-18T19:41:57.454Z,11.13
2019-02-18T19:44:26.813Z,10.53
2019-02-18T19:46:56.170Z,11.03
2019-02-18T19:49:25.435Z,10.60
2019-02-18T19:51:55.149Z,10.97
2019-02-18T19:54:24.513Z,9.97
2019-02-18T19:56:54.399Z,11.93
2019-02-18T19:59:23.714Z,10.33
2019-02-18T20:01:53.458Z,10.43
2019-02-18T20:04:22.825Z,8.97
2019-02-18T20:06:52.275Z,9.80
2019-02-18T20:09:21.973Z,10.77
2019-02-18T20:11:51.271Z,9.90
2019-02-18T20:14:20.690Z,8.57
2019-02-18T20:16:50.015Z,9.67
2019-02-18T20:19:19.348Z,9.53
2019-02-18T20:21:49.149Z,9.03
2019-02-18T20:24:19.182Z,11.17
2019-02-18T20:26:48.568Z,10.37
2019-02-18T20:29:17.919Z,10.77
2019-02-18T20:31:47.557Z,8.13
2019-02-18T20:34:17.056Z,11.73
2019-02-18T20:36:47.453Z,9.80
2019-02-18T20:39:17.327Z,10.03
2019-02-18T20:41:46.732Z,10.37
2019-02-18T20:44:16.101Z,10.27
2019-02-18T20:46:45.480Z,12.50
2019-02-18T20:49:14.802Z,12.30
2019-02-18T20:51:44.154Z,9.70
2019-02-18T20:54:13.653Z,10.00
2019-02-18T20:56:43.032Z,9.87
2019-02-18T20:59:14.053Z,9.30
2019-02-18T21:01:44.124Z,10.13
2019-02-18T21:04:13.720Z,9.53
2019-02-18T21:06:44.749Z,10.00
2019-02-18T21:09:14.101Z,11.20
2019-02-18T21:11:43.588Z,10.73
2019-02-18T21:14:16.176Z,10.87
2019-02-18T21:16:44.527Z,12.90
2019-02-18T21:19:14.121Z,13.13
2019-02-18T21:21:43.567Z,11.27
2019-02-18T21:24:14.693Z,12.60
2019-02-18T21:26:44.047Z,13.70
2019-02-18T21:29:13.394Z,11.03
2019-02-18T21:31:42.732Z,12.17
2019-02-18T21:34:12.049Z,12.33
2019-02-18T21:36:41.324Z,11.70
2019-02-18T21:39:13.574Z,10.60
2019-02-18T21:41:42.915Z,11.10
2019-02-18T21:44:12.578Z,11.03
2019-02-18T21:46:41.915Z,10.13
2019-02-18T21:49:11.505Z,10.30
2019-02-18T21:51:41.215Z,11.43
2019-02-18T21:54:10.532Z,9.60
2019-02-18T21:56:39.851Z,10.23
2019-02-18T21:59:09.192Z,9.70
2019-02-18T22:01:38.647Z,9.40
2019-02-18T22:04:08.269Z,9.13
2019-02-18T22:06:37.479Z,8.77
2019-02-18T22:09:07.468Z,10.57
2019-02-18T22:11:36.863Z,9.47
2019-02-18T22:14:06.136Z,10.33
2019-02-18T22:16:35.502Z,9.70
2019-02-18T22:19:05.573Z,10.87
2019-02-18T22:21:35.169Z,10.30
2019-02-18T22:24:04.431Z,9.77
2019-02-18T22:26:33.736Z,9.23
2019-02-18T22:29:03.325Z,11.23
2019-02-18T22:31:32.668Z,9.07
2019-02-18T22:34:02.006Z,10.63
2019-02-18T22:36:31.362Z,9.00
2019-02-18T22:39:00.955Z,12.60
2019-02-18T22:41:30.445Z,9.60
2019-02-18T22:43:59.801Z,9.83
2019-02-18T22:46:29.144Z,10.37
2019-02-18T22:48:58.754Z,10.50
2019-02-18T22:51:28.615Z,11.33
2019-02-18T22:53:58.326Z,10.07
2019-02-18T22:56:27.650Z,12.50
2019-02-18T22:58:56.906Z,9.97
2019-02-18T23:01:26.295Z,10.47
2019-02-18T23:03:55.575Z,10.33
2019-02-18T23:06:25.175Z,10.73
2019-02-18T23:08:54.599Z,13.07
2019-02-18T23:11:23.883Z,10.63
2019-02-18T23:13:53.464Z,10.87
2019-02-18T23:16:22.739Z,12.73
2019-02-18T23:18:52.099Z,11.57
2019-02-18T23:21:22.081Z,10.13
2019-02-18T23:23:51.436Z,10.77
2019-02-18T23:26:20.808Z,10.57
2019-02-18T23:28:50.307Z,11.10
2019-02-18T23:31:19.995Z,11.87
2019-02-18T23:33:49.306Z,12.57
2019-02-18T23:36:18.589Z,12.03
2019-02-18T23:38:47.938Z,13.03
2019-02-18T23:41:17.606Z,14.40
2019-02-18T23:43:46.820Z,17.13
2019-02-18T23:46:16.176Z,15.53
2019-02-18T23:48:45.851Z,15.40
2019-02-18T23:51:15.219Z,17.67
2019-02-18T23:53:44.494Z,15.03
2019-02-18T23:56:14.148Z,18.47
2019-02-18T23:58:43.346Z,19.80
